Thomastown, Mississippi
Current Conditions -  °F | °C
As of 10:54 PM on Sunday 19 Oct 2014 (Local Time) from KJAN Reporting Station
Clear Clear  
Wind Chill: 50°   Ceiling: Unl
Heat Index: 50°   Visibility: 10mi
Dew Point: 48°   Wind: 0mph
Humidity: 93%   Direction: NA
Pressure: 30.1"   Gusts: NA
Location:  32.86°N, 89.67°W
Report Text: KJAN 200354Z 00000KT 10SM CLR 10/09 A3010 RMK AO2 SLP191 LAST AUGMENTED OBSERVATION UNTIL 1100Z T01000089
Loading
Personal Weather Stations






























Interactive Weather Map
Tropical Storm Tracking
New forecast layout! Learn more

10-Day Weather Forecast

Advertisements
Track Severe Weather on mobile